createdAt,value
2023-02-27T09:47:45.427Z,25.00
2023-02-27T09:48:45.409Z,25.00
2023-02-27T09:49:45.503Z,25.00
2023-02-27T09:50:45.393Z,25.00
2023-02-27T09:51:45.387Z,0.00
2023-02-27T09:52:45.370Z,0.00
2023-02-27T09:53:45.360Z,0.00
2023-02-27T09:54:45.503Z,0.00
2023-02-27T09:55:45.547Z,0.00
2023-02-27T09:56:45.347Z,0.00
2023-02-27T09:57:45.336Z,0.00
2023-02-27T09:58:45.314Z,0.00
2023-02-27T09:59:45.370Z,0.00
2023-02-27T10:00:45.523Z,0.00
2023-02-27T10:01:45.506Z,0.00
2023-02-27T10:02:46.309Z,0.00
2023-02-27T10:03:45.267Z,0.00
2023-02-27T10:04:45.255Z,0.00
2023-02-27T10:05:45.258Z,0.00
2023-02-27T10:06:45.548Z,0.00
2023-02-27T10:07:45.239Z,0.00
2023-02-27T10:08:45.221Z,0.00
2023-02-27T10:09:45.763Z,0.00
2023-02-27T10:10:45.249Z,0.00
2023-02-27T10:11:45.196Z,0.00
2023-02-27T10:12:45.185Z,0.00
2023-02-27T10:13:45.194Z,0.00
2023-02-27T10:14:45.271Z,0.00
2023-02-27T10:15:45.171Z,0.00
2023-02-27T10:16:45.209Z,0.00
2023-02-27T10:17:45.154Z,0.00
2023-02-27T10:18:45.165Z,0.00
2023-02-27T10:19:45.129Z,0.00
2023-02-27T10:20:45.805Z,0.00
2023-02-27T10:21:45.110Z,0.00
2023-02-27T10:22:45.526Z,0.00
2023-02-27T10:23:45.113Z,0.00
2023-02-27T10:24:45.107Z,0.00
2023-02-27T10:25:45.101Z,0.00
2023-02-27T10:26:45.686Z,0.00
2023-02-27T10:27:45.524Z,0.00
2023-02-27T10:28:45.577Z,0.00
2023-02-27T10:29:45.166Z,0.00
2023-02-27T10:30:45.160Z,0.00
2023-02-27T10:31:45.141Z,0.00
2023-02-27T10:32:45.107Z,0.00
2023-02-27T10:33:45.113Z,0.00
2023-02-27T10:34:45.617Z,0.00
2023-02-27T10:35:45.167Z,0.00
2023-02-27T10:36:45.064Z,0.00
2023-02-27T10:37:45.534Z,0.00
2023-02-27T10:38:45.125Z,0.00
2023-02-27T10:39:45.528Z,0.00
2023-02-27T10:40:45.144Z,0.00
2023-02-27T10:41:45.111Z,0.00
2023-02-27T10:42:45.549Z,0.00
2023-02-27T10:43:45.099Z,0.00
2023-02-27T10:44:45.529Z,0.00
2023-02-27T10:45:45.119Z,0.00
2023-02-27T10:46:45.653Z,0.00
2023-02-27T10:47:45.097Z,0.00
2023-02-27T10:48:45.080Z,2.89
2023-02-27T10:49:45.082Z,27.93
2023-02-27T10:50:45.081Z,28.26
2023-02-27T10:51:45.597Z,24.76
2023-02-27T10:52:45.048Z,28.97
2023-02-27T10:53:45.525Z,24.71
2023-02-27T10:54:45.078Z,31.75
2023-02-27T10:55:45.068Z,49.62
2023-02-27T10:56:45.060Z,37.76
2023-02-27T10:57:45.524Z,34.70
2023-02-27T10:58:45.537Z,41.00
2023-02-27T10:59:45.104Z,25.00
2023-02-27T11:00:45.107Z,40.13
2023-02-27T11:01:45.217Z,40.06
2023-02-27T11:02:45.091Z,29.62
2023-02-27T11:03:45.545Z,23.09
2023-02-27T11:04:45.140Z,42.30
2023-02-27T11:05:45.052Z,40.25
2023-02-27T11:06:45.109Z,1.44
2023-02-27T11:07:45.544Z,52.28
2023-02-27T11:08:45.032Z,70.06
2023-02-27T11:09:45.022Z,47.68
2023-02-27T11:10:45.021Z,57.81
2023-02-27T11:11:44.998Z,65.50
2023-02-27T11:13:45.058Z,64.08
2023-02-27T11:15:44.994Z,51.79
2023-02-27T11:16:44.955Z,53.12
2023-02-27T11:17:44.950Z,67.49
2023-02-27T11:18:45.076Z,59.75
2023-02-27T11:19:44.944Z,47.76
2023-02-27T11:20:45.036Z,44.00
2023-02-27T11:21:44.915Z,47.17
2023-02-27T11:22:44.937Z,52.20
2023-02-27T11:23:44.895Z,58.21
2023-02-27T11:24:44.893Z,47.44
2023-02-27T11:25:45.044Z,26.63
2023-02-27T11:27:44.864Z,63.96
2023-02-27T11:28:44.853Z,62.37
2023-02-27T11:29:45.035Z,82.46
2023-02-27T11:30:44.899Z,90.57
2023-02-27T11:31:44.898Z,93.97
2023-02-27T11:32:45.038Z,82.70
2023-02-27T11:33:44.812Z,80.86
2023-02-27T11:34:45.086Z,78.89
2023-02-27T11:35:44.825Z,64.66
2023-02-27T11:36:44.791Z,65.60
2023-02-27T11:37:44.778Z,58.88
2023-02-27T11:38:44.811Z,75.45
2023-02-27T11:39:45.066Z,61.00
2023-02-27T11:40:44.750Z,71.19
2023-02-27T11:41:44.761Z,65.78
2023-02-27T11:42:44.760Z,63.54
2023-02-27T11:43:45.043Z,64.49
2023-02-27T11:44:50.711Z,60.75
2023-02-27T11:46:20.352Z,60.87
2023-02-27T11:46:48.501Z,61.33
2023-02-27T11:47:45.099Z,61.44
2023-02-27T11:48:44.679Z,62.71
2023-02-27T11:49:44.670Z,61.04
2023-02-27T11:50:44.669Z,52.01
2023-02-27T11:51:44.665Z,74.19
2023-02-27T11:52:44.648Z,61.15
2023-02-27T11:53:45.058Z,37.49
2023-02-27T11:54:44.652Z,44.46
2023-02-27T11:55:45.068Z,46.37
2023-02-27T11:56:44.622Z,57.49
2023-02-27T11:57:44.613Z,51.87
2023-02-27T11:58:45.050Z,48.16
2023-02-27T11:59:44.598Z,68.13
2023-02-27T12:00:44.590Z,46.32
2023-02-27T12:01:45.079Z,46.54
2023-02-27T12:02:44.656Z,38.28
2023-02-27T12:03:45.590Z,48.28
2023-02-27T12:04:44.548Z,38.37
2023-02-27T12:05:44.589Z,51.18
2023-02-27T12:06:44.556Z,57.43
2023-02-27T12:08:44.515Z,61.45
2023-02-27T12:09:44.505Z,47.05
2023-02-27T12:10:44.733Z,56.59
2023-02-27T12:11:44.554Z,50.74
2023-02-27T12:12:44.484Z,43.14
2023-02-27T12:13:44.483Z,47.74
2023-02-27T12:14:44.542Z,33.73
2023-02-27T12:15:44.467Z,12.80
2023-02-27T12:16:44.631Z,40.84
2023-02-27T12:17:44.451Z,39.89
2023-02-27T12:18:44.437Z,72.33
2023-02-27T12:19:44.429Z,79.53
2023-02-27T12:20:44.538Z,73.95
2023-02-27T12:21:44.566Z,96.74
2023-02-27T12:22:44.428Z,84.85
2023-02-27T12:23:44.384Z,95.78
2023-02-27T12:24:44.381Z,91.20
2023-02-27T12:25:44.365Z,84.05
2023-02-27T12:26:45.087Z,82.86
2023-02-27T12:27:44.366Z,81.75
2023-02-27T12:28:44.361Z,92.78
2023-02-27T12:29:44.341Z,96.09
2023-02-27T12:30:44.323Z,82.63
2023-02-27T12:31:44.790Z,86.37
2023-02-27T12:32:44.335Z,92.03
2023-02-27T12:33:44.589Z,98.14
2023-02-27T12:34:44.305Z,85.06
2023-02-27T12:35:44.317Z,75.96
2023-02-27T12:36:44.722Z,103.07
2023-02-27T12:37:45.055Z,89.71
2023-02-27T12:38:51.647Z,91.12
2023-02-27T12:39:44.724Z,91.49
2023-02-27T12:40:44.831Z,91.36
2023-02-27T12:41:44.837Z,91.74
2023-02-27T12:42:44.237Z,84.08
2023-02-27T12:43:44.208Z,90.53
2023-02-27T12:44:44.197Z,86.15
2023-02-27T12:45:44.312Z,80.92
2023-02-27T12:46:44.609Z,76.18
2023-02-27T12:47:44.183Z,79.43
2023-02-27T12:48:44.186Z,79.25
2023-02-27T12:49:44.212Z,97.74
2023-02-27T12:50:44.341Z,79.10
2023-02-27T12:51:44.150Z,81.93
2023-02-27T12:52:45.556Z,89.00
2023-02-27T12:53:44.128Z,107.23
2023-02-27T12:54:46.329Z,118.10
2023-02-27T12:55:44.098Z,117.54
2023-02-27T12:56:44.097Z,114.58
2023-02-27T12:57:45.057Z,106.28
2023-02-27T12:58:44.526Z,112.18
2023-02-27T12:59:44.509Z,136.67
2023-02-27T13:00:44.681Z,114.79
2023-02-27T13:01:44.059Z,119.75
2023-02-27T13:02:44.601Z,108.66
2023-02-27T13:03:44.273Z,115.15
2023-02-27T13:04:44.550Z,116.09
2023-02-27T13:05:44.622Z,110.22
2023-02-27T13:06:44.395Z,66.88
2023-02-27T13:07:44.730Z,94.67
2023-02-27T13:08:44.448Z,71.11
2023-02-27T13:09:44.173Z,82.48
2023-02-27T13:10:44.132Z,98.68
2023-02-27T13:11:44.003Z,114.79
2023-02-27T13:12:44.661Z,85.00
2023-02-27T13:13:44.115Z,109.18
2023-02-27T13:14:44.007Z,117.83
2023-02-27T13:15:43.960Z,105.32
2023-02-27T13:16:44.052Z,98.90
2023-02-27T13:17:43.962Z,99.49
2023-02-27T13:18:44.106Z,106.47
2023-02-27T13:19:43.930Z,84.53
2023-02-27T13:20:44.105Z,101.02
2023-02-27T13:21:44.203Z,100.50
2023-02-27T13:22:43.905Z,114.25
2023-02-27T13:23:44.095Z,113.85
2023-02-27T13:24:43.986Z,94.78
2023-02-27T13:25:43.971Z,97.00
2023-02-27T13:26:44.033Z,86.53
2023-02-27T13:27:43.894Z,75.65
2023-02-27T13:28:44.203Z,84.30
2023-02-27T13:29:43.955Z,97.63
2023-02-27T13:30:45.029Z,84.50
2023-02-27T13:31:44.045Z,95.61
2023-02-27T13:32:44.733Z,112.86
2023-02-27T13:33:45.601Z,97.64
2023-02-27T13:34:44.337Z,113.78
2023-02-27T13:35:44.312Z,114.01
2023-02-27T13:36:43.821Z,114.12
2023-02-27T13:37:44.022Z,103.24
2023-02-27T13:38:44.694Z,97.67
2023-02-27T13:39:44.148Z,107.16
2023-02-27T13:40:44.505Z,93.05
2023-02-27T13:41:43.739Z,99.69
2023-02-27T13:42:43.715Z,69.32
2023-02-27T13:43:52.236Z,71.61
2023-02-27T13:44:44.115Z,72.30
2023-02-27T13:45:44.070Z,76.76
2023-02-27T13:46:44.106Z,85.14
2023-02-27T13:47:43.735Z,94.73
2023-02-27T13:48:44.613Z,111.82
2023-02-27T13:49:45.129Z,119.08
2023-02-27T13:50:44.407Z,117.65
2023-02-27T13:51:44.004Z,118.59
2023-02-27T13:52:44.085Z,110.86
2023-02-27T13:53:44.182Z,130.83
2023-02-27T13:54:44.529Z,112.85
2023-02-27T13:55:44.096Z,102.26
2023-02-27T13:56:44.167Z,114.66
2023-02-27T13:57:43.757Z,104.39
2023-02-27T13:58:44.156Z,73.18
2023-02-27T13:59:44.602Z,107.34
2023-02-27T14:00:44.131Z,94.32
2023-02-27T14:01:44.181Z,100.59
2023-02-27T14:02:58.125Z,116.99
2023-02-27T14:03:43.914Z,76.96
2023-02-27T14:04:44.305Z,81.94
2023-02-27T14:05:44.111Z,105.31
2023-02-27T14:06:44.215Z,123.02
2023-02-27T14:07:45.095Z,101.40
2023-02-27T14:08:43.588Z,123.42
2023-02-27T14:09:44.781Z,117.17
2023-02-27T14:10:43.619Z,109.41
2023-02-27T14:11:44.316Z,113.47
2023-02-27T14:12:46.148Z,114.32
2023-02-27T14:13:44.193Z,92.76
2023-02-27T14:14:44.185Z,98.44
2023-02-27T14:15:44.258Z,96.48
2023-02-27T14:16:44.019Z,98.11
2023-02-27T14:17:44.236Z,96.39
2023-02-27T14:18:43.881Z,88.16
2023-02-27T14:19:44.156Z,93.50
2023-02-27T14:20:43.741Z,86.37
2023-02-27T14:21:43.483Z,89.16
2023-02-27T14:22:43.915Z,111.27
2023-02-27T14:23:43.670Z,126.30
2023-02-27T14:25:01.142Z,127.03
2023-02-27T14:25:44.140Z,127.13
2023-02-27T14:26:44.019Z,103.40
2023-02-27T14:27:43.842Z,5.10
2023-02-27T14:28:43.998Z,0.00
2023-02-27T14:29:43.914Z,37.08
2023-02-27T14:30:44.008Z,68.38
2023-02-27T14:31:43.884Z,74.57
2023-02-27T14:32:44.045Z,61.07
2023-02-27T14:33:44.086Z,77.59
2023-02-27T14:34:43.851Z,70.57
2023-02-27T14:35:44.150Z,71.84
2023-02-27T14:36:44.161Z,103.67
2023-02-27T14:37:43.795Z,110.92
2023-02-27T14:38:43.970Z,115.16
2023-02-27T14:39:43.769Z,107.83
2023-02-27T14:40:44.637Z,124.36
2023-02-27T14:41:43.441Z,500.00
2023-02-27T14:42:43.813Z,500.00
2023-02-27T14:43:43.776Z,500.00
2023-02-27T14:44:43.840Z,500.00
2023-02-27T14:45:44.144Z,500.00
2023-02-27T14:46:43.820Z,500.00
2023-02-27T14:47:43.767Z,500.00
2023-02-27T14:48:43.346Z,485.03
2023-02-27T14:49:43.902Z,439.88
2023-02-27T14:50:44.374Z,390.66
2023-02-27T14:51:44.186Z,342.27
2023-02-27T14:52:43.669Z,317.23
2023-02-27T14:53:43.587Z,287.86
2023-02-27T14:54:45.256Z,271.82
2023-02-27T14:55:43.766Z,248.04
2023-02-27T14:56:44.551Z,238.31
2023-02-27T14:57:43.759Z,224.85
2023-02-27T14:58:45.702Z,213.48
2023-02-27T14:59:44.371Z,206.31
2023-02-27T15:01:43.933Z,189.62
2023-02-27T15:02:43.484Z,176.56
2023-02-27T15:03:43.959Z,172.06
2023-02-27T15:04:43.742Z,164.03
2023-02-27T15:05:43.835Z,158.63
2023-02-27T15:06:43.929Z,145.07
2023-02-27T15:07:43.589Z,154.19
2023-02-27T15:08:43.618Z,148.30
2023-02-27T15:09:43.660Z,141.23
2023-02-27T15:10:43.626Z,131.93
2023-02-27T15:11:51.277Z,136.94
2023-02-27T15:12:43.584Z,134.08
2023-02-27T15:13:43.788Z,128.06
2023-02-27T15:14:43.654Z,122.28
2023-02-27T15:15:43.538Z,121.53
2023-02-27T15:16:43.703Z,120.98
2023-02-27T15:17:43.528Z,117.98
2023-02-27T15:18:43.480Z,113.45
2023-02-27T15:19:43.494Z,115.46
2023-02-27T15:20:43.533Z,111.22
2023-02-27T15:21:43.570Z,116.67
2023-02-27T15:22:43.433Z,113.68
2023-02-27T15:23:43.522Z,117.59
2023-02-27T15:24:50.024Z,105.79
2023-02-27T15:25:42.943Z,106.04
2023-02-27T15:26:43.547Z,97.93
2023-02-27T15:27:43.616Z,101.04
2023-02-27T15:28:44.090Z,97.54
2023-02-27T15:29:43.555Z,100.76
2023-02-27T15:30:43.723Z,99.25
2023-02-27T15:31:43.566Z,90.11
2023-02-27T15:32:43.521Z,88.74
2023-02-27T15:33:43.971Z,79.02
2023-02-27T15:34:44.068Z,79.36
2023-02-27T15:35:43.532Z,76.51
2023-02-27T15:36:43.600Z,71.99
2023-02-27T15:37:43.925Z,66.60
2023-02-27T15:38:43.605Z,68.64
2023-02-27T15:39:44.869Z,68.50
2023-02-27T15:40:43.387Z,68.81
2023-02-27T15:41:43.166Z,69.45
2023-02-27T15:42:44.132Z,69.26
2023-02-27T15:43:44.416Z,68.89
2023-02-27T15:44:43.304Z,65.47
2023-02-27T15:45:43.626Z,66.45
2023-02-27T15:46:43.315Z,65.91
2023-02-27T15:47:44.108Z,68.60
2023-02-27T15:48:43.351Z,67.16
2023-02-27T15:49:43.561Z,61.04
2023-02-27T15:50:43.633Z,60.89
2023-02-27T15:51:43.699Z,55.99
2023-02-27T15:52:43.865Z,56.16
2023-02-27T15:53:43.341Z,57.98
2023-02-27T15:54:43.322Z,51.15
2023-02-27T15:55:43.124Z,52.70
2023-02-27T15:56:43.352Z,50.47
2023-02-27T15:57:52.936Z,51.35
2023-02-27T15:58:43.550Z,51.46
2023-02-27T15:59:43.634Z,51.46
2023-02-27T16:00:43.646Z,52.07
2023-02-27T16:01:43.615Z,47.22
2023-02-27T16:02:44.232Z,52.93
2023-02-27T16:03:43.427Z,53.52
2023-02-27T16:04:43.364Z,50.30
2023-02-27T16:05:43.600Z,47.70
2023-02-27T16:06:43.532Z,46.34
2023-02-27T16:07:43.688Z,44.41
2023-02-27T16:08:43.240Z,46.18
2023-02-27T16:09:43.481Z,59.70
2023-02-27T16:10:43.422Z,53.24
2023-02-27T16:11:43.220Z,54.48
2023-02-27T16:12:43.413Z,54.18
2023-02-27T16:13:43.390Z,58.55
2023-02-27T16:14:43.180Z,55.95
2023-02-27T16:15:41.772Z,58.46
2023-02-27T16:16:42.784Z,59.54
2023-02-27T16:17:42.741Z,60.96
2023-02-27T16:18:42.728Z,62.99
2023-02-27T16:19:42.717Z,62.95
2023-02-27T16:20:42.724Z,64.77
2023-02-27T16:21:42.702Z,65.08
2023-02-27T16:22:42.698Z,65.08
2023-02-27T16:23:42.704Z,65.35
2023-02-27T16:24:42.692Z,67.56
2023-02-27T16:25:42.664Z,67.73
2023-02-27T16:26:42.680Z,68.13
2023-02-27T16:27:42.658Z,69.24
2023-02-27T16:28:42.673Z,68.54
2023-02-27T16:29:42.632Z,68.06
2023-02-27T16:30:42.621Z,70.86
2023-02-27T16:31:42.639Z,71.32
2023-02-27T16:32:42.712Z,71.13
2023-02-27T16:33:42.691Z,72.83
2023-02-27T16:34:46.419Z,72.48
2023-02-27T16:35:42.634Z,71.99
2023-02-27T16:36:42.582Z,72.76
2023-02-27T16:37:42.563Z,73.04
2023-02-27T16:38:42.562Z,74.16
2023-02-27T16:39:42.545Z,74.41
2023-02-27T16:40:42.631Z,75.54
2023-02-27T16:41:42.531Z,76.50
2023-02-27T16:42:42.562Z,77.65
2023-02-27T16:43:42.513Z,76.48
2023-02-27T16:44:42.503Z,77.62
2023-02-27T16:45:42.527Z,78.67
2023-02-27T16:46:42.486Z,77.48
2023-02-27T16:47:42.472Z,77.98
2023-02-27T16:48:42.484Z,78.92
2023-02-27T16:49:42.461Z,79.58
2023-02-27T16:50:42.454Z,78.91
2023-02-27T16:51:42.441Z,79.56
2023-02-27T16:52:42.430Z,80.65
2023-02-27T16:53:42.461Z,80.52
2023-02-27T16:54:42.421Z,80.58
2023-02-27T16:55:42.404Z,81.18
2023-02-27T16:56:42.754Z,81.93
2023-02-27T16:57:42.393Z,81.48
2023-02-27T16:58:42.409Z,82.75
2023-02-27T16:59:42.413Z,82.07
2023-02-27T17:00:42.370Z,82.87
2023-02-27T17:01:42.357Z,82.41
2023-02-27T17:02:42.349Z,83.30
2023-02-27T17:03:42.365Z,82.82
2023-02-27T17:04:42.348Z,83.43
2023-02-27T17:05:42.331Z,84.40
2023-02-27T17:06:42.318Z,83.56
2023-02-27T17:07:42.319Z,84.41
2023-02-27T17:08:42.351Z,84.67
2023-02-27T17:09:42.294Z,84.81
2023-02-27T17:10:42.284Z,84.08
2023-02-27T17:11:42.279Z,84.78
2023-02-27T17:12:43.816Z,85.67
2023-02-27T17:13:42.435Z,85.84
2023-02-27T17:14:42.456Z,85.29
2023-02-27T17:15:42.421Z,86.12
2023-02-27T17:16:42.473Z,86.55
2023-02-27T17:17:42.403Z,85.68
2023-02-27T17:18:42.441Z,86.44
2023-02-27T17:19:42.400Z,86.12
2023-02-27T17:20:42.387Z,86.18
2023-02-27T17:21:42.370Z,87.26
2023-02-27T17:22:42.367Z,87.18
2023-02-27T17:23:42.360Z,87.47
2023-02-27T17:24:42.342Z,87.61
2023-02-27T17:25:42.342Z,87.75
2023-02-27T17:26:42.334Z,88.32
2023-02-27T17:27:42.315Z,87.66
2023-02-27T17:28:42.307Z,88.54
2023-02-27T17:29:42.305Z,88.54
2023-02-27T17:30:42.345Z,88.15
2023-02-27T17:31:42.284Z,88.17
2023-02-27T17:32:42.276Z,88.22
2023-02-27T17:33:42.300Z,88.78
2023-02-27T17:34:42.263Z,88.18
2023-02-27T17:35:42.304Z,89.27
2023-02-27T17:36:42.248Z,88.82
2023-02-27T17:37:42.341Z,88.95
2023-02-27T17:38:42.222Z,89.38
2023-02-27T17:39:42.214Z,89.16
2023-02-27T17:40:42.209Z,89.37
2023-02-27T17:41:42.199Z,89.77
2023-02-27T17:42:42.192Z,88.85
2023-02-27T17:43:42.186Z,89.86
2023-02-27T17:44:44.858Z,89.40
2023-02-27T17:45:42.302Z,91.12
2023-02-27T17:46:42.175Z,90.93
2023-02-27T17:47:42.148Z,90.23
2023-02-27T17:48:42.136Z,89.60
2023-02-27T17:49:42.129Z,89.73
2023-02-27T17:50:44.631Z,90.75
2023-02-27T17:51:42.109Z,90.79
2023-02-27T17:52:42.103Z,90.88
2023-02-27T17:53:42.089Z,90.79
2023-02-27T17:54:42.087Z,90.68
2023-02-27T17:55:42.069Z,91.58
2023-02-27T17:56:42.084Z,90.88
2023-02-27T17:57:42.054Z,90.73
2023-02-27T17:58:42.052Z,91.58
2023-02-27T17:59:42.039Z,90.98
2023-02-27T18:00:42.025Z,91.67
2023-02-27T18:01:42.092Z,91.60
2023-02-27T18:02:42.053Z,91.63
2023-02-27T18:03:42.007Z,91.44
2023-02-27T18:04:41.992Z,91.26
2023-02-27T18:05:41.989Z,91.75
2023-02-27T18:06:41.973Z,92.17
2023-02-27T18:07:41.967Z,92.85
2023-02-27T18:08:41.976Z,92.45
2023-02-27T18:09:41.952Z,91.62
2023-02-27T18:10:41.936Z,92.27
2023-02-27T18:11:41.931Z,91.83
2023-02-27T18:12:41.948Z,92.04
2023-02-27T18:13:41.912Z,91.59
2023-02-27T18:14:41.905Z,92.46
2023-02-27T18:15:41.947Z,92.37
2023-02-27T18:16:41.891Z,93.08
2023-02-27T18:17:41.874Z,92.30
2023-02-27T18:18:41.895Z,92.46
2023-02-27T18:19:41.858Z,93.48
2023-02-27T18:20:41.850Z,92.19
2023-02-27T18:21:41.894Z,92.77
2023-02-27T18:22:41.837Z,93.20
2023-02-27T18:23:41.896Z,92.80
2023-02-27T18:24:41.825Z,93.30
2023-02-27T18:25:41.806Z,93.91
2023-02-27T18:26:41.802Z,92.51
2023-02-27T18:27:41.785Z,92.81
2023-02-27T18:28:41.781Z,92.75
2023-02-27T18:29:41.777Z,93.48
2023-02-27T18:30:41.780Z,92.83
2023-02-27T18:31:41.752Z,93.43
2023-02-27T18:32:41.748Z,93.41
2023-02-27T18:33:41.743Z,93.60
2023-02-27T18:34:41.753Z,93.62
2023-02-27T18:35:41.742Z,93.29
2023-02-27T18:36:41.707Z,92.97
2023-02-27T18:37:41.705Z,93.54
2023-02-27T18:38:41.695Z,93.41
2023-02-27T18:39:41.691Z,94.46
2023-02-27T18:40:41.684Z,93.37
2023-02-27T18:41:41.671Z,93.70
2023-02-27T18:42:41.653Z,93.05
2023-02-27T18:43:41.655Z,94.35
2023-02-27T18:44:41.653Z,93.65
2023-02-27T18:45:41.676Z,94.00
2023-02-27T18:46:41.720Z,93.87
2023-02-27T18:47:41.611Z,94.75
2023-02-27T18:48:41.621Z,94.50
2023-02-27T18:49:41.607Z,93.25
2023-02-27T18:50:41.623Z,94.09
2023-02-27T18:51:41.599Z,93.92
2023-02-27T18:52:41.576Z,93.99
2023-02-27T18:53:41.564Z,94.63
2023-02-27T18:54:41.554Z,94.11
2023-02-27T18:55:41.543Z,94.29
2023-02-27T18:56:41.536Z,94.06
2023-02-27T18:57:41.534Z,94.67
2023-02-27T18:58:41.529Z,94.17
2023-02-27T18:59:41.535Z,94.14
2023-02-27T19:00:41.506Z,94.64
2023-02-27T19:01:41.493Z,94.45
2023-02-27T19:02:41.922Z,93.42
2023-02-27T19:03:41.549Z,93.93
2023-02-27T19:04:41.467Z,93.95
2023-02-27T19:05:41.454Z,94.53
2023-02-27T19:06:41.476Z,94.38
2023-02-27T19:07:41.449Z,94.47
2023-02-27T19:08:41.432Z,94.54
2023-02-27T19:09:41.425Z,94.48
2023-02-27T19:10:41.420Z,94.98
2023-02-27T19:11:41.405Z,95.23
2023-02-27T19:12:41.400Z,93.95
2023-02-27T19:13:41.402Z,94.00
2023-02-27T19:14:41.384Z,94.24
2023-02-27T19:15:41.396Z,94.56
2023-02-27T19:16:41.487Z,94.65
2023-02-27T19:17:41.355Z,94.45
2023-02-27T19:18:41.346Z,95.30
2023-02-27T19:19:41.334Z,94.27
2023-02-27T19:20:41.363Z,94.83
2023-02-27T19:21:41.348Z,94.04
2023-02-27T19:22:41.346Z,95.21
2023-02-27T19:23:41.305Z,94.90
2023-02-27T19:24:41.290Z,95.28
2023-02-27T19:25:41.311Z,94.86
2023-02-27T19:26:41.281Z,94.91
2023-02-27T19:27:41.264Z,94.90
2023-02-27T19:28:41.276Z,94.60
2023-02-27T19:29:41.247Z,94.56
2023-02-27T19:30:41.281Z,95.40
2023-02-27T19:31:41.295Z,95.76
2023-02-27T19:32:41.222Z,94.38
2023-02-27T19:33:41.210Z,95.29
2023-02-27T19:34:41.214Z,95.54
2023-02-27T19:35:43.483Z,95.76
2023-02-27T19:36:41.187Z,95.82
2023-02-27T19:37:41.183Z,95.90
2023-02-27T19:38:41.204Z,95.83
2023-02-27T19:39:41.165Z,96.00
2023-02-27T19:40:41.148Z,95.99
2023-02-27T19:41:41.149Z,97.08
2023-02-27T19:42:41.132Z,95.86
2023-02-27T19:43:41.150Z,96.38
2023-02-27T19:44:41.123Z,95.13
2023-02-27T19:45:41.114Z,95.58
2023-02-27T19:46:41.431Z,95.34
2023-02-27T19:47:41.090Z,95.30
2023-02-27T19:48:41.116Z,95.99
2023-02-27T19:49:41.083Z,95.69
2023-02-27T19:50:41.069Z,96.17
2023-02-27T19:51:41.059Z,95.86
2023-02-27T19:52:41.080Z,95.59
2023-02-27T19:53:41.055Z,95.74
2023-02-27T19:54:41.056Z,96.09
2023-02-27T19:55:41.031Z,96.62
2023-02-27T19:56:41.011Z,96.35
2023-02-27T19:57:41.006Z,96.42
2023-02-27T19:58:41.000Z,96.30
2023-02-27T19:59:40.991Z,95.70
2023-02-27T20:00:41.004Z,96.88
2023-02-27T20:01:40.993Z,96.50
2023-02-27T20:02:40.964Z,96.59
2023-02-27T20:03:43.492Z,95.88
2023-02-27T20:04:40.952Z,95.96
2023-02-27T20:05:40.936Z,96.10
2023-02-27T20:06:40.932Z,96.34
2023-02-27T20:07:40.917Z,97.00
2023-02-27T20:08:40.933Z,97.42
2023-02-27T20:09:40.902Z,97.13
2023-02-27T20:10:41.868Z,97.38
2023-02-27T20:11:40.884Z,97.52
2023-02-27T20:12:40.875Z,97.02
2023-02-27T20:13:40.867Z,98.01
2023-02-27T20:14:40.853Z,97.77
2023-02-27T20:15:40.852Z,97.91
2023-02-27T20:16:40.920Z,96.53
2023-02-27T20:17:40.825Z,96.40
2023-02-27T20:18:41.797Z,97.02
2023-02-27T20:19:40.807Z,97.58
2023-02-27T20:20:40.828Z,97.73
2023-02-27T20:21:40.797Z,97.44
2023-02-27T20:22:40.787Z,96.93
2023-02-27T20:23:40.775Z,97.54
2023-02-27T20:24:40.764Z,97.92
2023-02-27T20:25:40.752Z,97.25
2023-02-27T20:26:40.788Z,97.83
2023-02-27T20:27:40.739Z,98.04
2023-02-27T20:28:40.747Z,97.59
2023-02-27T20:29:40.745Z,98.37
2023-02-27T20:30:40.713Z,98.27
2023-02-27T20:31:40.750Z,97.09
2023-02-27T20:32:40.777Z,98.56
2023-02-27T20:33:40.707Z,98.18
2023-02-27T20:34:40.683Z,98.12
2023-02-27T20:35:40.698Z,98.15
2023-02-27T20:36:40.668Z,97.91
2023-02-27T20:37:40.655Z,97.85
2023-02-27T20:38:40.646Z,98.16
2023-02-27T20:39:40.628Z,97.17
2023-02-27T20:40:40.618Z,97.12
2023-02-27T20:41:40.623Z,97.88
2023-02-27T20:42:40.629Z,97.93
2023-02-27T20:43:40.601Z,98.19
2023-02-27T20:44:40.592Z,98.13
2023-02-27T20:45:40.696Z,97.87
2023-02-27T20:46:40.573Z,97.31
2023-02-27T20:47:40.562Z,97.59
2023-02-27T20:48:40.551Z,97.32
2023-02-27T20:49:40.550Z,97.27
2023-02-27T20:50:40.557Z,98.06
2023-02-27T20:51:40.534Z,96.87
2023-02-27T20:52:40.521Z,98.20
2023-02-27T20:53:40.533Z,97.71
2023-02-27T20:54:40.512Z,97.81
2023-02-27T20:55:40.499Z,97.16
2023-02-27T20:56:40.540Z,97.83
2023-02-27T20:57:40.527Z,97.80
2023-02-27T20:58:40.492Z,98.85
2023-02-27T20:59:40.457Z,97.90
2023-02-27T21:00:40.472Z,98.49
2023-02-27T21:01:40.520Z,97.94
2023-02-27T21:02:40.434Z,97.56
2023-02-27T21:03:40.535Z,98.04
2023-02-27T21:04:40.505Z,98.03
2023-02-27T21:05:40.406Z,98.44
2023-02-27T21:06:40.399Z,98.33
2023-02-27T21:07:40.392Z,98.58
2023-02-27T21:08:40.376Z,98.02
2023-02-27T21:09:40.371Z,98.38
2023-02-27T21:10:40.367Z,98.53
2023-02-27T21:11:40.351Z,98.99
2023-02-27T21:12:40.352Z,97.72
2023-02-27T21:13:40.334Z,97.88
2023-02-27T21:14:40.349Z,99.85
2023-02-27T21:15:40.370Z,98.43
2023-02-27T21:16:40.353Z,98.27
2023-02-27T21:17:40.300Z,98.69
2023-02-27T21:18:40.297Z,98.76
2023-02-27T21:19:40.297Z,98.95
2023-02-27T21:20:40.271Z,99.06
2023-02-27T21:21:40.260Z,99.30
2023-02-27T21:22:40.259Z,99.40
2023-02-27T21:23:40.244Z,98.88
2023-02-27T21:24:40.239Z,99.56
2023-02-27T21:25:40.225Z,98.73
2023-02-27T21:26:40.228Z,98.61
2023-02-27T21:27:40.236Z,99.38
2023-02-27T21:28:40.208Z,98.93
2023-02-27T21:29:40.229Z,98.76
2023-02-27T21:30:40.208Z,98.87
2023-02-27T21:31:40.247Z,99.33
2023-02-27T21:32:40.166Z,98.26
2023-02-27T21:33:40.163Z,99.82
2023-02-27T21:34:40.147Z,98.41
2023-02-27T21:35:40.151Z,98.86
2023-02-27T21:36:40.124Z,100.39
2023-02-27T21:37:40.120Z,99.50
2023-02-27T21:38:40.123Z,99.03
2023-02-27T21:39:40.102Z,99.11
2023-02-27T21:40:40.097Z,99.56
2023-02-27T21:41:40.083Z,99.36
2023-02-27T21:42:40.084Z,99.30
2023-02-27T21:43:40.064Z,100.15
2023-02-27T21:44:40.057Z,99.65
2023-02-27T21:45:40.048Z,98.32
2023-02-27T21:46:40.062Z,99.93
2023-02-27T21:47:40.038Z,98.52
2023-02-27T21:48:40.052Z,99.64
2023-02-27T21:49:40.018Z,99.97
2023-02-27T21:50:40.004Z,100.44
2023-02-27T21:51:41.207Z,100.13
2023-02-27T21:52:39.983Z,100.64
2023-02-27T21:53:39.983Z,98.87
2023-02-27T21:54:39.967Z,99.35
2023-02-27T21:55:39.960Z,100.07
2023-02-27T21:56:39.952Z,100.55
2023-02-27T21:57:39.938Z,99.50
2023-02-27T21:58:39.927Z,100.49
2023-02-27T21:59:39.918Z,99.89
2023-02-27T22:00:39.918Z,99.86
2023-02-27T22:01:39.920Z,99.90
2023-02-27T22:02:40.019Z,100.54
2023-02-27T22:03:39.883Z,101.28
2023-02-27T22:04:39.874Z,99.82
2023-02-27T22:05:39.870Z,99.96
2023-02-27T22:06:39.857Z,100.55
2023-02-27T22:07:39.850Z,99.81
2023-02-27T22:08:39.846Z,100.27
2023-02-27T22:09:39.837Z,100.01
2023-02-27T22:10:39.820Z,101.16
2023-02-27T22:11:39.811Z,101.01
2023-02-27T22:12:39.806Z,100.42
2023-02-27T22:13:39.794Z,100.20
2023-02-27T22:14:39.798Z,101.18
2023-02-27T22:15:39.824Z,100.88
2023-02-27T22:16:39.769Z,101.30
2023-02-27T22:17:39.851Z,99.53
2023-02-27T22:18:39.772Z,99.94
2023-02-27T22:19:39.748Z,100.27
2023-02-27T22:20:39.726Z,99.89
2023-02-27T22:21:39.728Z,100.43
2023-02-27T22:22:39.750Z,100.16
2023-02-27T22:23:39.726Z,100.98
2023-02-27T22:24:39.706Z,99.87
2023-02-27T22:25:39.691Z,99.67
2023-02-27T22:26:39.727Z,100.30
2023-02-27T22:27:39.671Z,101.10
2023-02-27T22:28:39.664Z,100.34
2023-02-27T22:29:41.604Z,100.65
2023-02-27T22:30:39.645Z,102.69
2023-02-27T22:31:39.704Z,101.05
2023-02-27T22:32:39.627Z,101.69
2023-02-27T22:33:39.646Z,101.15
2023-02-27T22:34:39.637Z,101.00
2023-02-27T22:35:39.618Z,101.11
2023-02-27T22:36:39.600Z,101.94
2023-02-27T22:37:39.595Z,101.08
2023-02-27T22:38:39.620Z,100.85
2023-02-27T22:39:39.563Z,100.51
2023-02-27T22:40:39.553Z,101.45
2023-02-27T22:41:39.570Z,101.28